Latest Weather Observations for Perth

IDW60901

Issued at 1:55 pm WST Sunday 26 October 2014 (issued every 10 minutes, with the page automatically refreshed every 10 minutes)

About weather observations | Map of Perth area stations | Latest observations for Perth area | Other Formats
Station Details ID: 009225 Name: PERTH METRO Lat: -31.92 Lon: 115.87 Height: 24.9 m
Data from the previous 72 hours. | See also: Recent months at Perth
Date/Time
WST
Tmp

°C
App
Tmp
°C
Dew
Point
°C
Rel
Hum
%
Delta-T

°C
Wind Press
QNH
hPa
Press
MSL
hPa
Rain
since
9 am
mm
Dir
 
Spd
km/h
Gust
km/h
Spd
kts
Gust
kts
26/01:30pm 21.8 18.9 12.4 55 5.3 SW 19 28 10 15 1022.3 1022.2 0.6
26/01:00pm 20.6 18.2 12.8 61 4.4 SW 17 28 9 15 1022.5 1022.4 0.6
26/12:30pm 19.6 17.2 12.6 64 3.9 SW 17 26 9 14 1022.7 1022.6 0.6
26/12:00pm 18.2 16.7 14.3 78 2.2 WSW 15 28 8 15 1022.9 1022.8 0.6
26/11:30am 17.9 16.9 14.6 81 1.9 SW 13 22 7 12 1023.1 1023.0 0.6
26/11:00am 20.1 18.3 12.1 60 4.4 SW 13 22 7 12 1023.0 1022.9 0.0
26/10:30am 18.8 16.5 13.0 69 3.3 SW 17 28 9 15 1023.3 1023.2 0.0
26/10:00am 19.8 17.7 13.5 67 3.6 WSW 17 28 9 15 1022.9 1022.8 0.0
26/09:30am 19.6 17.6 12.8 65 3.8 SW 15 28 8 15 1022.5 1022.4 0.0
26/09:00am 20.8 18.5 10.6 52 5.5 SSW 13 24 7 13 1022.1 1022.0 0.2
26/08:30am 20.9 18.8 11.0 53 5.4 W 13 20 7 11 1021.9 1021.8 0.2
26/08:00am 18.8 16.9 11.9 64 3.8 SW 13 19 7 10 1021.8 1021.7 0.2
26/07:30am 18.2 16.5 11.3 64 3.8 WSW 11 20 6 11 1021.6 1021.5 0.2
26/07:00am 18.1 16.8 11.4 65 3.6 SW 9 13 5 7 1021.2 1021.1 0.2
26/06:30am 17.4 16.1 11.4 68 3.3 WSW 9 17 5 9 1020.9 1020.8 0.2
26/06:00am 16.9 15.8 11.8 72 2.8 WSW 9 13 5 7 1020.5 1020.4 0.2
26/05:30am 17.2 15.8 11.0 67 3.3 WSW 9 17 5 9 1020.1 1020.0 0.2
26/05:00am 17.2 15.6 10.3 64 3.7 SW 9 15 5 8 1019.8 1019.7 0.2
26/04:30am 17.1 15.9 10.2 64 3.7 W 7 11 4 6 1019.6 1019.5 0.2
26/04:00am 17.2 15.2 10.3 64 3.7 SW 11 20 6 11 1019.7 1019.6 0.2
26/03:30am 17.2 14.9 10.3 64 3.7 SW 13 20 7 11 1019.5 1019.4 0.2
26/03:00am 17.2 15.3 10.6 65 3.5 SW 11 17 6 9 1019.4 1019.3 0.2
26/02:30am 16.6 15.3 10.0 65 3.5 WSW 7 13 4 7 1019.4 1019.3 0.2
26/02:00am 16.4 15.3 10.7 69 3.0 SW 7 17 4 9 1019.5 1019.4 0.2
26/01:30am 16.4 15.3 10.5 68 3.1 SW 7 13 4 7 1019.5 1019.4 0.2
26/01:00am 16.4 15.1 10.0 66 3.4 SW 7 17 4 9 1019.6 1019.5 0.2
26/12:30am 17.0 15.4 10.1 64 3.6 SW 9 15 5 8 1019.8 1019.7 0.2
26/12:00am 16.9 15.4 10.7 67 3.3 SW 9 17 5 9 1019.9 1019.8 0.2
 
Date/Time
WST
Tmp

°C
App
Tmp
°C
Dew
Point
°C
Rel
Hum
%
Delta-T

°C
Wind Press
QNH
hPa
Press
MSL
hPa
Rain
since
9 am
mm
Dir
 
Spd
km/h
Gust
km/h
Spd
kts
Gust
kts
25/11:30pm 16.8 16.0 11.1 69 3.1 SW 6 13 3 7 1019.9 1019.8 0.2
25/11:00pm 16.8 15.1 11.3 70 3.0 SW 11 19 6 10 1019.9 1019.8 0.2
25/10:30pm 17.2 15.5 11.2 68 3.2 SW 11 19 6 10 1019.8 1019.7 0.2
25/10:00pm 17.3 16.2 12.0 71 2.9 SW 9 15 5 8 1019.8 1019.7 0.2
25/09:30pm 17.9 15.7 12.1 69 3.2 SW 15 28 8 15 1019.9 1019.8 0.2
25/09:00pm 18.1 16.2 13.0 72 2.9 SW 15 24 8 13 1020.0 1019.9 0.2
25/08:30pm 18.1 18.1 14.2 78 2.2 WSW 7 13 4 7 1019.9 1019.8 0.2
25/08:00pm 18.4 16.8 13.9 75 2.6 SW 15 22 8 12 1019.6 1019.5 0.2
25/07:30pm 18.5 17.4 14.4 77 2.4 SW 13 19 7 10 1019.3 1019.2 0.2
25/07:00pm 18.5 17.8 14.4 77 2.4 SW 11 22 6 12 1019.0 1018.9 0.2
25/06:30pm 18.1 16.9 15.0 82 1.8 SW 15 22 8 12 1018.7 1018.6 0.2
25/06:00pm 18.5 18.2 15.4 82 1.8 WSW 11 20 6 11 1018.5 1018.4 0.2
25/05:30pm 18.1 17.5 15.7 86 1.4 WSW 13 20 7 11 1018.2 1018.1 0.2
25/05:00pm 18.6 18.0 16.6 88 1.2 W 15 26 8 14 1018.0 1017.9 0.2
25/04:30pm 19.9 18.9 14.7 72 3.0 WNW 13 30 7 16 1018.0 1017.9 0.0
25/04:00pm 21.2 19.8 14.4 65 4.0 WNW 15 28 8 15 1017.9 1017.8 0.0
25/03:30pm 20.8 19.3 14.2 66 3.8 WNW 15 30 8 16 1018.0 1017.9 0.0
25/03:00pm 21.3 19.7 14.0 63 4.2 W 15 24 8 13 1017.8 1017.7 0.0
25/02:30pm 21.1 19.2 13.0 60 4.6 W 15 24 8 13 1017.9 1017.8 0.0
25/02:00pm 21.8 19.9 12.9 57 5.1 W 15 24 8 13 1017.8 1017.7 0.0
25/01:30pm 21.5 19.3 12.1 55 5.3 W 15 24 8 13 1017.9 1017.8 0.0
25/01:00pm 21.6 19.3 11.9 54 5.4 W 15 24 8 13 1018.0 1017.9 0.0
25/12:30pm 20.8 17.8 12.0 57 4.9 W 19 32 10 17 1018.1 1018.0 0.0
25/12:00pm 20.8 18.0 12.5 59 4.7 W 19 26 10 14 1018.1 1018.0 0.0
25/11:30am 20.1 17.7 12.8 63 4.1 SW 17 28 9 15 1018.2 1018.1 0.0
25/11:00am 20.5 18.0 12.2 59 4.6 W 17 28 9 15 1018.3 1018.2 0.0
25/10:30am 21.0 19.0 12.7 59 4.7 WSW 15 26 8 14 1018.2 1018.1 0.0
25/10:00am 20.8 19.2 12.8 60 4.5 WSW 13 22 7 12 1018.2 1018.1 0.0
25/09:30am 21.1 19.0 12.3 57 5.0 W 15 24 8 13 1018.1 1018.0 0.0
25/09:00am 20.4 17.7 11.6 57 4.9 WSW 17 24 9 13 1017.9 1017.8 0.0
25/08:30am 20.1 17.9 12.1 60 4.5 WSW 15 28 8 15 1017.6 1017.5 0.0
25/08:00am 19.5 17.8 12.5 64 3.9 WSW 13 19 7 10 1017.2 1017.1 0.0
25/07:30am 19.3 18.0 12.6 65 3.8 WSW 11 20 6 11 1017.0 1016.9 0.0
25/07:00am 18.4 18.1 13.3 72 2.9 WSW 7 13 4 7 1016.6 1016.5 0.0
25/06:30am 16.3 17.6 14.0 86 1.3 CALM 0 0 0 0 1016.5 1016.4 0.0
25/06:00am 15.6 16.3 13.4 87 1.2 WSW 2 7 1 4 1016.3 1016.2 0.0
25/05:30am 15.3 16.3 13.3 88 1.1 CALM 0 0 0 0 1015.9 1015.8 0.0
25/05:00am 15.1 16.1 13.3 89 1.0 CALM 0 0 0 0 1015.8 1015.7 0.0
25/04:30am 14.9 15.9 13.3 90 0.9 CALM 0 0 0 0 1015.8 1015.7 0.0
25/04:00am 14.1 15.0 12.8 92 0.7 CALM 0 0 0 0 1015.4 1015.3 0.0
25/03:30am 13.9 14.1 13.0 94 0.5 WSW 4 7 2 4 1015.4 1015.3 0.0
25/03:00am 13.8 14.7 13.0 95 0.4 CALM 0 0 0 0 1015.4 1015.3 0.0
25/02:30am 14.0 15.0 13.1 94 0.5 CALM 0 0 0 0 1015.0 1014.9 0.0
25/02:00am 14.3 15.3 13.2 93 0.6 CALM 0 0 0 0 1015.3 1015.2 0.0
25/01:30am 14.6 15.6 13.3 92 0.7 CALM 0 0 0 0 1015.1 1015.0 0.0
25/01:00am 14.6 15.6 13.3 92 0.7 CALM 0 0 0 0 1015.3 1015.2 0.0
25/12:30am 14.9 16.0 13.6 92 0.7 CALM 0 0 0 0 1015.4 1015.3 0.0
25/12:00am 15.0 16.1 13.4 90 0.9 CALM 0 0 0 0 1015.5 1015.4 0.0
 
Date/Time
WST
Tmp

°C
App
Tmp
°C
Dew
Point
°C
Rel
Hum
%
Delta-T

°C
Wind Press
QNH
hPa
Press
MSL
hPa
Rain
since
9 am
mm
Dir
 
Spd
km/h
Gust
km/h
Spd
kts
Gust
kts
24/11:30pm 15.8 17.0 13.8 88 1.1 CALM 0 0 0 0 1015.6 1015.5 0.0
24/11:00pm 16.9 17.3 13.8 82 1.8 SW 4 9 2 5 1015.8 1015.7 0.0
24/10:30pm 17.2 17.2 13.5 79 2.1 SW 6 9 3 5 1015.9 1015.8 0.0
24/10:00pm 16.9 17.5 13.0 78 2.2 SW 2 7 1 4 1015.9 1015.8 0.0
24/09:30pm 17.6 17.4 13.1 75 2.5 SW 6 11 3 6 1015.9 1015.8 0.0
24/09:00pm 18.0 17.3 13.1 73 2.8 SW 9 15 5 8 1015.9 1015.8 0.0
24/08:30pm 18.2 17.0 12.9 71 3.0 SW 11 15 6 8 1015.9 1015.8 0.0
24/08:00pm 18.3 17.4 12.5 69 3.2 SSW 9 17 5 9 1015.7 1015.6 0.0
24/07:30pm 18.7 17.6 12.0 65 3.7 SW 9 15 5 8 1015.4 1015.3 0.0
24/07:00pm 19.2 17.6 11.7 62 4.1 SW 11 19 6 10 1015.4 1015.3 0.0
24/06:30pm 19.6 17.6 11.4 59 4.5 SW 13 19 7 10 1015.3 1015.2 0.0
24/06:00pm 20.4 18.3 11.1 55 5.1 SW 13 26 7 14 1015.2 1015.1 0.0
24/05:30pm 21.6 19.5 11.3 52 5.7 SW 13 22 7 12 1015.1 1015.0 0.0
24/05:00pm 22.4 20.1 10.5 47 6.5 SW 13 22 7 12 1014.8 1014.7 0.0
24/04:30pm 23.0 20.4 10.8 46 6.8 WSW 15 22 8 12 1014.6 1014.5 0.0
24/04:00pm 24.1 22.2 11.8 46 7.0 SW 13 24 7 13 1014.4 1014.3 0.0
24/03:30pm 24.7 23.2 12.0 45 7.2 SW 11 19 6 10 1014.2 1014.1 0.0
24/03:00pm 24.1 21.9 12.1 47 6.8 WSW 15 22 8 12 1014.3 1014.2 0.0
24/02:30pm 23.8 21.5 11.8 47 6.8 WSW 15 22 8 12 1014.5 1014.4 0.0
24/02:00pm 25.0 22.8 12.2 44 7.3 SW 15 28 8 15 1014.7 1014.6 0.0
24/01:30pm 24.5 22.2 11.8 45 7.2 SW 15 22 8 12 1015.0 1014.9 0.0
24/01:00pm 24.9 22.8 12.5 46 7.1 SW 15 24 8 13 1015.2 1015.1 0.0
24/12:30pm 25.5 25.1 13.0 46 7.3 NE 7 13 4 7 1015.4 1015.3 0.0
24/12:00pm 25.1 23.8 11.3 42 7.8 N 9 17 5 9 1015.8 1015.7 0.0
24/11:30am 24.1 23.3 11.1 44 7.3 SE 6 11 3 6 1016.2 1016.1 0.0
24/11:00am 23.0 22.2 11.7 49 6.3 NE 7 9 4 5 1016.8 1016.7 0.0
24/10:30am 21.8 20.4 10.9 50 6.0 NE 9 13 5 7 1017.1 1017.0 0.0
24/10:00am 21.6 20.2 11.0 51 5.8 E 9 13 5 7 1017.5 1017.4 0.0
24/09:30am 21.7 20.7 12.3 55 5.3 E 9 15 5 8 1017.8 1017.7 0.0
24/09:00am 20.2 19.2 11.1 56 5.0 E 7 13 4 7 1018.0 1017.9 0.0
24/08:30am 19.3 18.0 11.1 59 4.5 SE 9 13 5 7 1017.8 1017.7 0.0
24/08:00am 18.2 17.1 10.8 62 4.0 ESE 7 13 4 7 1017.9 1017.8 0.0
24/07:30am 17.6 16.9 12.1 70 3.0 E 7 13 4 7 1017.9 1017.8 0.0
24/07:00am 15.1 14.1 11.1 77 2.1 E 7 13 4 7 1017.9 1017.8 0.0
24/06:30am 14.5 13.0 10.7 78 2.0 E 9 19 5 10 1017.7 1017.6 0.0
24/06:00am 14.0 13.0 11.0 82 1.6 E 7 17 4 9 1017.9 1017.8 0.0
24/05:30am 12.9 13.0 11.5 91 0.7 NE 2 9 1 5 1017.5 1017.4 0.0
24/05:00am 12.7 13.3 11.9 95 0.4 CALM 0 0 0 0 1017.3 1017.2 0.0
24/04:30am 12.9 13.6 12.3 96 0.3 CALM 0 0 0 0 1017.6 1017.5 0.0
24/04:00am 12.8 13.5 12.2 96 0.3 CALM 0 0 0 0 1017.5 1017.4 0.0
24/03:30am 13.1 13.8 12.3 95 0.4 CALM 0 0 0 0 1017.4 1017.3 0.0
24/03:00am 13.3 14.1 12.4 94 0.5 CALM 0 0 0 0 1017.5 1017.4 0.0
24/02:30am 13.5 13.9 12.4 93 0.6 S 2 6 1 3 1017.6 1017.5 0.0
24/02:00am 14.3 14.9 13.0 92 0.7 S 2 7 1 4 1017.4 1017.3 0.0
24/01:30am 14.9 15.2 13.4 91 0.8 S 4 6 2 3 1017.5 1017.4 0.0
24/01:00am 15.4 15.2 13.6 89 1.0 S 7 11 4 6 1017.4 1017.3 0.0
24/12:30am 15.3 15.2 13.3 88 1.1 SSE 6 7 3 4 1017.5 1017.4 0.0
24/12:00am 15.6 15.5 13.3 86 1.3 S 6 9 3 5 1017.7 1017.6 0.0
 
Date/Time
WST
Tmp

°C
App
Tmp
°C
Dew
Point
°C
Rel
Hum
%
Delta-T

°C
Wind Press
QNH
hPa
Press
MSL
hPa
Rain
since
9 am
mm
Dir
 
Spd
km/h
Gust
km/h
Spd
kts
Gust
kts
23/11:30pm 16.1 15.5 13.4 84 1.5 S 9 15 5 8 1017.7 1017.6 0.0
23/11:00pm 16.6 15.6 13.3 81 1.8 S 11 17 6 9 1017.9 1017.8 0.0
23/10:30pm 16.8 16.2 13.5 81 1.9 S 9 13 5 7 1018.0 1017.9 0.0
23/10:00pm 17.0 16.3 13.3 79 2.1 S 9 17 5 9 1018.2 1018.1 0.0
23/09:30pm 17.1 16.4 13.2 78 2.2 S 9 13 5 7 1018.4 1018.3 0.0
23/09:00pm 17.2 16.4 12.9 76 2.4 SSW 9 13 5 7 1018.3 1018.2 0.0
23/08:30pm 17.4 16.5 12.7 74 2.6 SSW 9 15 5 8 1018.1 1018.0 0.0
23/08:00pm 17.6 16.7 12.5 72 2.8 S 9 15 5 8 1018.1 1018.0 0.0
23/07:30pm 17.7 16.0 12.6 72 2.8 SSW 13 20 7 11 1017.8 1017.7 0.0
23/07:00pm 17.9 16.6 12.6 71 2.9 SSW 11 19 6 10 1017.5 1017.4 0.0
23/06:30pm 18.2 16.9 12.4 69 3.2 SSW 11 20 6 11 1017.4 1017.3 0.0
23/06:00pm 18.9 17.2 12.6 67 3.5 SW 13 22 7 12 1017.0 1016.9 0.0
23/05:30pm 19.5 17.2 13.0 66 3.7 SW 17 24 9 13 1016.7 1016.6 0.0
23/05:00pm 19.9 17.8 13.6 67 3.6 SSW 17 26 9 14 1016.5 1016.4 0.0
23/04:30pm 21.8 19.8 13.9 61 4.6 SW 17 28 9 15 1016.3 1016.2 0.0
23/04:00pm 20.6 18.6 12.8 61 4.4 SW 15 24 8 13 1016.2 1016.1 0.0
23/03:30pm 21.1 19.0 13.5 62 4.4 SW 17 26 9 14 1016.1 1016.0 0.0
23/03:00pm 21.0 18.8 13.4 62 4.4 WSW 17 28 9 15 1016.1 1016.0 0.0
23/02:30pm 21.0 18.3 11.6 55 5.2 SW 17 30 9 16 1016.2 1016.1 0.0
23/02:00pm 21.6 19.5 12.5 56 5.2 SW 15 28 8 15 1016.2 1016.1 0.0

Latest Capital City Observations: Canberra | Sydney | Melbourne | Brisbane | Adelaide | Perth | Hobart | Darwin

Other Formats:

Comma delimited format used in spreadsheet applications
http://www.bom.gov.au/fwo/IDW60901/IDW60901.94608.axf

JavaScript Object Notation format (JSON) in row-major order
http://www.bom.gov.au/fwo/IDW60901/IDW60901.94608.json